Map

Track Data

SID SEASON NUMBER BASIN SUBBASIN NAME ISO_TIME NATURE LAT LON WMO_WIND WMO_PRES WMO_AGENCY TRACK_TYPE DIST2LAND LANDFALL IFLAG USA_AGENCY USA_ATCF_ID USA_LAT USA_LON USA_RECORD USA_STATUS USA_WIND USA_PRES USA_SSHS USA_R34_NE USA_R34_SE USA_R34_SW USA_R34_NW USA_R50_NE USA_R50_SE USA_R50_SW USA_R50_NW USA_R64_NE USA_R64_SE USA_R64_SW USA_R64_NW USA_POCI USA_ROCI USA_RMW USA_EYE TOKYO_LAT TOKYO_LON TOKYO_GRADE TOKYO_WIND TOKYO_PRES TOKYO_R50_DIR TOKYO_R50_LONG TOKYO_R50_SHORT TOKYO_R30_DIR TOKYO_R30_LONG TOKYO_R30_SHORT TOKYO_LAND CMA_LAT CMA_LON CMA_CAT CMA_WIND CMA_PRES HKO_LAT HKO_LON HKO_CAT HKO_WIND HKO_PRES NEWDELHI_LAT NEWDELHI_LON NEWDELHI_GRADE NEWDELHI_WIND NEWDELHI_PRES NEWDELHI_CI NEWDELHI_DP NEWDELHI_POCI REUNION_LAT REUNION_LON REUNION_TYPE REUNION_WIND REUNION_PRES REUNION_TNUM REUNION_CI REUNION_RMW REUNION_R34_NE REUNION_R34_SE REUNION_R34_SW REUNION_R34_NW REUNION_R50_NE REUNION_R50_SE REUNION_R50_SW REUNION_R50_NW REUNION_R64_NE REUNION_R64_SE REUNION_R64_SW REUNION_R64_NW BOM_LAT BOM_LON BOM_TYPE BOM_WIND BOM_PRES BOM_TNUM BOM_CI BOM_RMW BOM_R34_NE BOM_R34_SE BOM_R34_SW BOM_R34_NW BOM_R50_NE BOM_R50_SE BOM_R50_SW BOM_R50_NW BOM_R64_NE BOM_R64_SE BOM_R64_SW BOM_R64_NW BOM_ROCI BOM_POCI BOM_EYE BOM_POS_METHOD BOM_PRES_METHOD NADI_LAT NADI_LON NADI_CAT NADI_WIND NADI_PRES WELLINGTON_LAT WELLINGTON_LON WELLINGTON_WIND WELLINGTON_PRES DS824_LAT DS824_LON DS824_STAGE DS824_WIND DS824_PRES TD9636_LAT TD9636_LON TD9636_STAGE TD9636_WIND TD9636_PRES TD9635_LAT TD9635_LON TD9635_WIND TD9635_PRES TD9635_ROCI NEUMANN_LAT NEUMANN_LON NEUMANN_CLASS NEUMANN_WIND NEUMANN_PRES MLC_LAT MLC_LON MLC_CLASS MLC_WIND MLC_PRES USA_GUST BOM_GUST BOM_GUST_PER REUNION_GUST REUNION_GUST_PER USA_SEAHGT USA_SEARAD_NE USA_SEARAD_SE USA_SEARAD_SW USA_SEARAD_NW STORM_SPEED STORM_DIR
1913008S20135 1913 4 SI WA NOT_NAMED 1913-01-07 23:00:00 NR -20.1000 134.500 main 0 0 __________O___ -1 -20.1000 134.500 7 23 123
1913008S20135 1913 4 SI WA NOT_NAMED 1913-01-08 00:00:00 NR -20.3069 134.839 main 0 0 __________P___ -1 -20.3069 134.839 7 23 123
1913008S20135 1913 4 SP EA NOT_NAMED 1913-01-08 03:00:00 NR -20.9223 135.860 main 0 0 __________P___ -1 -20.9223 135.860 7 23 123
1913008S20135 1913 4 SP EA NOT_NAMED 1913-01-08 06:00:00 NR -21.5269 136.886 main 0 0 __________P___ -1 -21.5269 136.886 7 23 122
1913008S20135 1913 4 SP EA NOT_NAMED 1913-01-08 09:00:00 NR -22.1167 137.914 main 0 0 __________P___ -1 -22.1167 137.914 7 22 122
1913008S20135 1913 4 SP EA NOT_NAMED 1913-01-08 11:00:00 NR -22.5000 138.600 main 0 0 __________O___ -1 -22.5000 138.600 7 22 121
1913008S20135 1913 4 SP EA NOT_NAMED 1913-01-08 12:00:00 NR -22.6881 138.942 main 0 0 __________P___ -1 -22.6881 138.942 7 22 120
1913008S20135 1913 4 SP EA NOT_NAMED 1913-01-08 15:00:00 NR -23.2209 139.959 main 0 0 __________P___ -1 -23.2209 139.959 7 21 118
1913008S20135 1913 4 SP EA NOT_NAMED 1913-01-08 18:00:00 NR -23.6693 140.937 main 0 0 __________P___ -1 -23.6693 140.937 7 19 114
1913008S20135 1913 4 SP EA NOT_NAMED 1913-01-08 21:00:00 NR -23.9857 141.847 main 0 0 __________P___ -1 -23.9857 141.847 7 17 108
1913008S20135 1913 4 SP EA NOT_NAMED 1913-01-08 23:00:00 NR -24.1000 142.400 main 0 0 __________O___ -1 -24.1000 142.400 7 15 100
1913008S20135 1913 4 SP EA NOT_NAMED 1913-01-09 00:00:00 NR -24.1190 142.664 main 0 0 __________P___ -1 -24.1190 142.664 7 14 87
1913008S20135 1913 4 SP EA NOT_NAMED 1913-01-09 03:00:00 NR -24.0512 143.385 main 0 0 __________P___ -1 -24.0512 143.385 7 13 78
1913008S20135 1913 4 SP EA NOT_NAMED 1913-01-09 06:00:00 NR -23.8494 144.013 main 0 0 __________P___ -1 -23.8494 144.013 7 12 67
1913008S20135 1913 4 SP EA NOT_NAMED 1913-01-09 09:00:00 NR -23.5817 144.565 main 0 0 __________P___ -1 -23.5817 144.565 7 11 61
1913008S20135 1913 4 SP EA NOT_NAMED 1913-01-09 11:00:00 NR -23.4000 144.900 main 0 0 __________O___ -1 -23.4000 144.900 7 10 62
1913008S20135 1913 4 SP EA NOT_NAMED 1913-01-09 12:00:00 NR -23.3455 145.049 main 0 0 __________P___ -1 -23.3455 145.049 7 8 66
1913008S20135 1913 4 SP EA NOT_NAMED 1913-01-09 15:00:00 NR -23.1813 145.446 main 0 0 __________P___ -1 -23.1813 145.446 7 8 64
1913008S20135 1913 4 SP EA NOT_NAMED 1913-01-09 18:00:00 NR -22.9998 145.822 main 0 0 __________P___ -1 -22.9998 145.822 7 8 61
1913008S20135 1913 4 SP EA NOT_NAMED 1913-01-09 21:00:00 NR -22.7794 146.250 main 0 0 __________P___ -1 -22.7794 146.250 7 10 61
1913008S20135 1913 4 SP EA NOT_NAMED 1913-01-09 23:00:00 NR -22.6000 146.600 main 0 0 __________O___ -1 -22.6000 146.600 7 12 61
1913008S20135 1913 4 SP EA NOT_NAMED 1913-01-10 00:00:00 NR -22.4915 146.819 main 0 0 __________P___ -1 -22.4915 146.819 7 15 62
1913008S20135 1913 4 SP EA NOT_NAMED 1913-01-10 03:00:00 NR -22.1204 147.561 main 0 0 __________P___ -1 -22.1204 147.561 7 17 62
1913008S20135 1913 4 SP EA NOT_NAMED 1913-01-10 06:00:00 NR -21.7051 148.386 main 0 0 __________P___ -1 -21.7051 148.386 7 18 62
1913008S20135 1913 4 SP EA NOT_NAMED 1913-01-10 09:00:00 NR -21.2768 149.240 main 0 0 __________P___ -1 -21.2768 149.240 7 18 62
1913008S20135 1913 4 SP EA NOT_NAMED 1913-01-10 11:00:00 NR -21.0000 149.800 main 63 63 __________O___ -1 -21.0000 149.800 7 18 62
1913008S20135 1913 4 SP EA NOT_NAMED 1913-01-10 12:00:00 NR -20.8676 150.072 main 96 96 __________P___ -1 -20.8676 150.072 7 17 63
1913008S20135 1913 4 SP EA NOT_NAMED 1913-01-10 15:00:00 NR -20.4941 150.856 main 188 188 __________P___ -1 -20.4941 150.856 7 16 63
1913008S20135 1913 4 SP EA NOT_NAMED 1913-01-10 18:00:00 NR -20.1476 151.603 main 273 273 __________P___ -1 -20.1476 151.603 7 15 64
1913008S20135 1913 4 SP EA NOT_NAMED 1913-01-10 21:00:00 NR -19.8170 152.325 main 334 334 __________P___ -1 -19.8170 152.325 7 15 64
1913008S20135 1913 4 SP EA NOT_NAMED 1913-01-10 23:00:00 NR -19.6000 152.800 main 381 __________O___ -1 -19.6000 152.800 7 15 64

About IBTrACS Database

This database is a web-friendly format of International Best Track Archive for Climate Stewardship (IBTrACS), a global best track data archive curated by NOAA dating back to 1842.

Updated: 2021-10-27